Time;durP1;ratioP1;P1;durP2;ratioP2;P2;SDS_P1;SDS_P2;PMS_P1;PMS_P2;Temp;Humidity;BMP_temperature;BMP_pressure;BME280_temperature;BME280_humidity;BME280_pressure;Samples;Min_cycle;Max_cycle;Signal;HPM_P1;HPM_P2
2021/03/04 00:03:08;;;;;;;50.95;28.73;;;;;;;2.82;81.05;98365.56;10363035;28;20580;-76
2021/03/04 00:08:28;;;;;;;52.45;27.65;;;;;;;2.78;80.70;98368.59;10348896;28;20037;-75
2021/03/04 00:13:47;;;;;;;47.60;28.77;;;;;;;2.78;80.84;98348.56;10362499;28;20392;-75
2021/03/04 00:19:07;;;;;;;40.28;27.63;;;;;;;2.75;80.16;98344.84;10362379;28;20124;-75
2021/03/04 00:24:27;;;;;;;42.58;27.63;;;;;;;2.68;80.46;98330.94;10362302;28;20045;-76
2021/03/04 00:29:47;;;;;;;35.83;26.73;;;;;;;2.66;80.82;98330.72;10362100;28;20038;-75
2021/03/04 00:35:08;;;;;;;43.58;28.48;;;;;;;2.71;80.85;98332.66;10348153;28;20046;-75
2021/03/04 00:40:27;;;;;;;49.00;29.40;;;;;;;2.73;81.07;98333.63;10348115;28;20045;-75
2021/03/04 00:45:47;;;;;;;41.78;27.77;;;;;;;2.74;80.79;98324.06;10361294;28;20046;-75
2021/03/04 00:51:07;;;;;;;37.08;26.90;;;;;;;2.74;80.46;98317.81;10360631;28;20045;-75
2021/03/04 00:56:27;;;;;;;44.38;28.83;;;;;;;2.73;80.89;98313.56;10333579;28;20046;-75
2021/03/04 01:01:46;;;;;;;42.22;28.80;;;;;;;2.72;81.01;98295.56;10360647;28;20042;-76
2021/03/04 01:07:06;;;;;;;45.50;26.83;;;;;;;2.72;81.03;98292.78;10360328;28;20047;-75
2021/03/04 01:12:26;;;;;;;37.92;26.85;;;;;;;2.72;80.67;98292.78;10333204;28;20037;-76
2021/03/04 01:17:46;;;;;;;40.58;28.17;;;;;;;2.67;80.85;98277.81;10360495;28;20084;-76
2021/03/04 01:23:06;;;;;;;37.10;25.98;;;;;;;2.75;80.67;98272.44;10346371;28;20485;-75
2021/03/04 01:28:26;;;;;;;42.72;27.05;;;;;;;2.74;80.32;98273.69;10346431;28;20053;-75
2021/03/04 01:33:46;;;;;;;38.47;27.75;;;;;;;2.74;80.60;98260.66;10332217;28;20485;-75
2021/03/04 01:39:11;;;;;;;35.30;25.80;;;;;;;2.74;80.22;98251.66;10346265;28;20498;-74
2021/03/04 01:44:31;;;;;;;34.70;25.40;;;;;;;2.78;80.70;98246.56;10345951;28;20069;-75
2021/03/04 01:49:51;;;;;;;37.42;27.13;;;;;;;2.84;80.75;98236.16;10345718;28;20050;-76
2021/03/04 01:55:12;;;;;;;37.92;26.70;;;;;;;2.84;80.37;98233.41;10332549;28;20049;-74
2021/03/04 02:00:32;;;;;;;34.70;25.92;;;;;;;2.81;80.32;98232.47;10345741;28;20053;-75
2021/03/04 02:05:52;;;;;;;33.97;25.30;;;;;;;2.74;80.08;98230.34;10331750;28;20046;-75
2021/03/04 02:11:24;;;;;;;35.45;25.90;;;;;;;2.66;80.22;98209.44;10345496;28;20516;-75
2021/03/04 02:16:47;;;;;;;31.98;24.38;;;;;;;2.59;80.18;98208.78;10361458;28;20129;-75
2021/03/04 02:22:23;;;;;;;34.85;26.20;;;;;;;2.49;80.43;98198.72;10340150;28;20038;-75
2021/03/04 02:27:43;;;;;;;33.88;25.70;;;;;;;2.39;80.50;98195.66;10367724;28;20053;-75
2021/03/04 02:33:29;;;;;;;32.03;24.27;;;;;;;2.38;80.66;98188.66;10352427;28;20068;-76
2021/03/04 02:38:49;;;;;;;32.28;24.90;;;;;;;2.35;80.27;98183.47;10339391;28;20579;-75
2021/03/04 02:44:09;;;;;;;32.75;24.35;;;;;;;2.32;80.49;98187.25;10345191;28;20378;-74
2021/03/04 02:49:29;;;;;;;30.23;23.55;;;;;;;2.27;80.29;98172.31;10343820;28;20100;-76
2021/03/04 02:54:49;;;;;;;27.92;21.77;;;;;;;2.24;80.78;98178.91;10357447;28;20045;-75
2021/03/04 03:00:12;;;;;;;28.38;22.98;;;;;;;2.24;80.10;98184.41;10371112;28;20121;-74
2021/03/04 03:05:32;;;;;;;26.42;21.35;;;;;;;2.23;80.61;98185.69;10342119;28;20037;-74
2021/03/04 03:10:52;;;;;;;29.30;23.65;;;;;;;2.25;80.83;98172.13;10354489;28;20501;-75
2021/03/04 03:16:12;;;;;;;30.90;23.80;;;;;;;2.27;80.34;98169.56;10366949;28;20483;-74
2021/03/04 03:21:32;;;;;;;30.58;23.63;;;;;;;2.23;80.28;98160.88;10353919;28;20050;-74
2021/03/04 03:26:52;;;;;;;31.15;23.92;;;;;;;2.22;80.43;98153.88;10343547;28;20050;-75
2021/03/04 03:32:11;;;;;;;32.20;24.05;;;;;;;2.22;80.74;98153.88;10352434;28;20041;-74
2021/03/04 03:37:32;;;;;;;33.58;25.83;;;;;;;2.22;80.51;98145.59;10355024;28;20544;-74
2021/03/04 03:42:57;;;;;;;32.78;24.13;;;;;;;2.18;80.62;98148.69;10340146;28;20070;-75
2021/03/04 03:48:18;;;;;;;33.17;25.13;;;;;;;2.12;80.52;98156.31;10339782;28;20125;-74
2021/03/04 03:53:38;;;;;;;34.90;25.23;;;;;;;2.12;80.75;98141.78;10354507;28;20042;-74
2021/03/04 03:58:58;;;;;;;34.92;24.75;;;;;;;2.15;80.45;98149.75;10352665;28;20046;-76
2021/03/04 04:04:19;;;;;;;35.72;24.63;;;;;;;2.14;80.55;98126.25;10352747;28;20042;-75
2021/03/04 04:09:39;;;;;;;35.13;24.75;;;;;;;2.11;80.79;98121.03;10354422;28;20052;-76
2021/03/04 04:14:59;;;;;;;39.13;26.48;;;;;;;2.10;80.66;98116.78;10367311;28;20484;-76
2021/03/04 04:20:19;;;;;;;34.60;24.40;;;;;;;2.05;80.25;98112.16;10352560;28;20042;-75
2021/03/04 04:25:52;;;;;;;53.90;29.92;;;;;;;2.00;80.69;98108.22;10366497;28;20042;-75
2021/03/04 04:31:12;;;;;;;34.92;24.33;;;;;;;1.98;80.40;98105.97;10367466;28;20045;-76
2021/03/04 04:36:31;;;;;;;31.02;22.70;;;;;;;1.95;80.36;98093.28;10338280;28;20058;-75
2021/03/04 04:41:51;;;;;;;29.02;21.17;;;;;;;1.94;80.31;98064.28;10337137;28;20041;-75
2021/03/04 04:47:11;;;;;;;26.90;20.50;;;;;;;1.91;80.85;98065.31;10365121;28;20049;-75
2021/03/04 04:52:31;;;;;;;28.42;21.50;;;;;;;1.89;80.31;98059.59;10351306;28;20092;-76
2021/03/04 04:57:51;;;;;;;25.92;20.25;;;;;;;1.89;80.69;98051.34;10366618;28;20041;-75
2021/03/04 05:03:11;;;;;;;28.08;21.55;;;;;;;1.89;80.71;98059.59;10367103;28;20126;-77
2021/03/04 05:08:30;;;;;;;27.15;21.00;;;;;;;1.90;80.37;98060.34;10364926;28;20042;-75
2021/03/04 05:13:50;;;;;;;26.95;20.48;;;;;;;1.93;80.38;98051.00;10365637;28;20037;-74
2021/03/04 05:19:10;;;;;;;27.95;21.27;;;;;;;1.94;80.18;98036.00;10364395;28;20042;-75
2021/03/04 05:24:32;;;;;;;26.98;20.30;;;;;;;1.95;80.63;98031.97;10364412;28;20111;-75
2021/03/04 05:29:53;;;;;;;28.05;21.50;;;;;;;1.97;80.38;98026.66;10349059;28;20046;-76
2021/03/04 05:35:13;;;;;;;26.33;19.63;;;;;;;2.05;80.39;98018.53;10335365;28;20543;-74
2021/03/04 05:40:32;;;;;;;28.83;19.92;;;;;;;2.06;80.69;98020.00;10335373;28;20049;-76
2021/03/04 05:46:11;;;;;;;27.27;21.17;;;;;;;2.15;80.27;98016.81;10348079;28;20400;-77
2021/03/04 05:51:36;;;;;;;29.77;21.52;;;;;;;2.32;80.41;98017.22;10365108;28;20473;-75
2021/03/04 05:56:57;;;;;;;26.55;21.13;;;;;;;2.47;80.45;98008.38;10343602;28;20045;-76
2021/03/04 06:02:17;;;;;;;28.27;21.55;;;;;;;2.62;79.94;98018.84;10348456;28;20042;-75
2021/03/04 06:07:37;;;;;;;26.60;21.67;;;;;;;2.76;79.77;98023.78;10373481;28;20489;-76
2021/03/04 06:12:57;;;;;;;31.08;22.13;;;;;;;2.90;79.93;98005.19;10383419;28;20037;-74
2021/03/04 06:18:16;;;;;;;24.98;20.88;;;;;;;3.06;79.63;98017.09;10361632;28;20049;-75
2021/03/04 06:23:36;;;;;;;29.65;21.70;;;;;;;3.22;79.41;98017.97;10373698;28;20495;-76
2021/03/04 06:28:56;;;;;;;33.00;22.10;;;;;;;3.40;79.67;98006.00;10369993;28;20385;-75
2021/03/04 06:34:21;;;;;;;26.38;20.73;;;;;;;3.63;79.32;98003.38;10384732;28;20056;-75
2021/03/04 06:39:46;;;;;;;28.33;21.33;;;;;;;3.92;79.09;97998.59;10359213;28;20088;-76
2021/03/04 06:45:06;;;;;;;;;;;;;;;4.26;78.71;98007.44;10371152;28;20476;-75
2021/03/04 06:50:27;;;;;;;37.78;24.77;;;;;;;4.52;78.91;97997.41;10385836;28;19925;-78
2021/03/04 06:55:50;;;;;;;35.00;25.35;;;;;;;4.78;78.67;97991.59;10375724;28;20132;-76
2021/03/04 07:01:16;;;;;;;33.95;23.77;;;;;;;5.00;78.37;98000.47;10389736;28;20064;-76
2021/03/04 07:06:36;;;;;;;32.78;24.20;;;;;;;5.12;78.56;98001.63;10377461;28;20126;-75
2021/03/04 07:11:56;;;;;;;34.28;23.13;;;;;;;5.28;78.13;98000.31;10366314;28;20052;-79
2021/03/04 07:17:22;;;;;;;37.17;24.00;;;;;;;5.27;77.88;97998.09;10369914;28;20038;-77
2021/03/04 07:22:48;;;;;;;31.13;23.05;;;;;;;5.38;77.67;97995.72;10364031;28;20124;-77
2021/03/04 07:28:10;;;;;;;36.25;23.65;;;;;;;5.55;77.68;97991.66;10376897;28;20092;-82
2021/03/04 07:33:29;;;;;;;36.42;24.63;;;;;;;5.80;77.33;97989.78;10367494;28;20092;-78
2021/03/04 07:38:57;;;;;;;32.88;23.88;;;;;;;6.06;77.04;97983.09;10375259;28;20041;-78
2021/03/04 07:44:30;;;;;;;36.78;24.38;;;;;;;6.42;76.48;97980.00;10383676;28;20519;-81
2021/03/04 07:49:49;;;;;;;37.25;23.90;;;;;;;6.84;75.22;97979.41;10358240;28;20045;-79
2021/03/04 07:55:15;;;;;;;36.17;22.52;;;;;;;7.05;74.49;97976.34;10344355;28;20421;-76
2021/03/04 08:00:40;;;;;;;32.75;23.13;;;;;;;7.07;74.54;97974.47;10359436;28;20100;-82
2021/03/04 08:06:03;;;;;;;36.20;23.73;;;;;;;7.04;73.86;97964.47;10376547;28;20557;-79
2021/03/04 08:11:29;;;;;;;32.95;22.27;;;;;;;7.13;74.68;97969.41;10367366;28;20139;-78
2021/03/04 08:16:55;;;;;;;40.57;29.43;;;;;;;7.00;74.68;97966.19;10375731;28;20056;-78
2021/03/04 08:22:21;;;;;;;37.38;26.55;;;;;;;6.75;74.62;97966.88;10391306;28;20072;-82
2021/03/04 08:27:41;;;;;;;39.08;25.85;;;;;;;6.71;73.41;97957.50;10404384;28;20049;-79
2021/03/04 08:33:14;;;;;;;38.47;26.17;;;;;;;6.68;74.18;97944.75;10380963;28;20042;-80
2021/03/04 08:38:39;;;;;;;36.65;24.33;;;;;;;6.67;74.52;97938.47;10380303;28;20053;-77
2021/03/04 08:44:15;;;;;;;;;;;;;;;6.72;74.81;97925.66;10378361;28;20045;-82
2021/03/04 08:49:35;;;;;;;35.35;23.90;;;;;;;6.85;75.21;97942.03;10407390;28;19921;-77
2021/03/04 08:54:56;;;;;;;31.98;23.90;;;;;;;7.04;74.85;97931.16;10377667;28;20050;-75
2021/03/04 09:00:16;;;;;;;36.83;26.05;;;;;;;7.09;74.95;97908.00;10408464;28;20048;-76
2021/03/04 09:05:38;;;;;;;37.30;25.73;;;;;;;7.13;74.68;97908.34;10374499;28;20045;-76
2021/03/04 09:10:58;;;;;;;38.60;23.88;;;;;;;7.28;73.98;97899.16;10375894;28;20065;-84
2021/03/04 09:16:19;;;;;;;34.55;23.58;;;;;;;7.39;74.29;97884.06;10394730;28;20042;-82
2021/03/04 09:21:39;;;;;;;32.85;22.88;;;;;;;7.60;73.83;97880.88;10401891;28;20042;-81
2021/03/04 09:27:11;;;;;;;36.15;23.80;;;;;;;7.80;73.66;97865.84;10429291;28;20095;-80
2021/03/04 09:32:32;;;;;;;37.80;24.48;;;;;;;8.07;71.97;97851.25;10431545;28;20072;-79
2021/03/04 09:37:52;;;;;;;33.28;24.15;;;;;;;8.15;71.29;97855.41;10402574;28;20045;-81
2021/03/04 09:43:18;;;;;;;33.58;23.13;;;;;;;8.42;71.85;97854.72;10390434;28;20184;-82
2021/03/04 09:48:39;;;;;;;37.33;24.07;;;;;;;8.99;70.66;97859.03;10386861;28;20042;-81
2021/03/04 09:53:59;;;;;;;33.40;22.38;;;;;;;9.81;71.19;97860.88;10388456;28;20276;-81
2021/03/04 09:59:20;;;;;;;37.30;23.65;;;;;;;11.60;71.21;97853.59;10388340;28;20057;-81
2021/03/04 10:05:14;;;;;;;35.42;23.25;;;;;;;16.09;67.52;97840.97;10375889;28;20049;-82
2021/03/04 10:10:34;;;;;;;33.75;23.77;;;;;;;18.43;62.27;97842.56;10388205;28;20046;-82
2021/03/04 10:15:54;;;;;;;36.78;24.58;;;;;;;22.45;53.03;97836.38;10387106;28;20041;-82
2021/03/04 10:21:17;;;;;;;31.35;22.48;;;;;;;21.75;50.54;97824.75;10373801;28;20060;-80
2021/03/04 10:26:36;;;;;;;34.25;21.77;;;;;;;19.69;51.85;97830.13;10387372;28;20431;-78
2021/03/04 10:31:57;;;;;;;31.25;21.83;;;;;;;18.04;52.12;97831.84;10387874;28;20042;-87
2021/03/04 10:37:16;;;;;;;28.95;21.48;;;;;;;16.87;52.02;97834.72;10400730;28;20053;-81
2021/03/04 10:42:37;;;;;;;28.50;21.95;;;;;;;16.27;49.47;97824.94;10393950;28;20045;-91
2021/03/04 10:47:56;;;;;;;34.47;22.25;;;;;;;15.66;52.27;97810.78;10395484;28;20064;-90
2021/03/04 10:53:16;;;;;;;34.03;23.33;;;;;;;16.46;49.46;97791.97;10402382;28;20034;-91
2021/03/04 10:58:36;;;;;;;34.10;24.27;;;;;;;18.20;49.28;97786.56;10394093;28;20049;-80
2021/03/04 11:03:55;;;;;;;34.30;23.52;;;;;;;20.28;46.93;97783.81;10393014;28;20483;-83
2021/03/04 11:09:15;;;;;;;32.15;23.50;;;;;;;20.32;43.90;97779.66;10392944;28;20046;-83
2021/03/04 11:14:37;;;;;;;32.25;23.40;;;;;;;20.25;40.85;97770.97;10379681;28;20069;-80
2021/03/04 11:19:57;;;;;;;29.45;22.60;;;;;;;21.65;41.70;97765.59;10430108;28;20064;-81
2021/03/04 11:25:17;;;;;;;30.67;21.73;;;;;;;22.04;39.55;97760.09;10398473;28;20103;-82
2021/03/04 11:30:37;;;;;;;30.65;22.35;;;;;;;22.02;34.51;97737.31;10410479;28;20484;-81
2021/03/04 11:35:57;;;;;;;35.17;23.10;;;;;;;21.85;36.76;97742.63;10391214;28;20554;-80
2021/03/04 11:41:17;;;;;;;33.20;23.13;;;;;;;21.47;36.23;97728.22;10391564;28;20465;-81
2021/03/04 11:46:36;;;;;;;34.28;22.42;;;;;;;21.09;35.67;97722.28;10377090;28;20052;-82
2021/03/04 11:51:56;;;;;;;33.58;22.10;;;;;;;20.24;35.89;97712.84;10392076;28;20038;-89
2021/03/04 11:57:16;;;;;;;40.80;21.83;;;;;;;18.96;35.54;97700.31;10391808;28;20053;-87
2021/03/04 12:02:37;;;;;;;34.28;20.02;;;;;;;18.31;37.08;97700.81;10405761;28;20484;-84
2021/03/04 12:07:56;;;;;;;35.80;19.38;;;;;;;17.56;37.41;97684.53;10392871;28;20045;-91
2021/03/04 12:13:17;;;;;;;33.53;20.40;;;;;;;17.41;37.96;97669.16;10392082;28;20048;-87
2021/03/04 12:18:36;;;;;;;32.25;18.52;;;;;;;17.71;37.79;97660.47;10405308;28;20042;-89
2021/03/04 12:23:57;;;;;;;35.05;20.85;;;;;;;17.48;37.70;97649.66;10391353;28;20045;-91
2021/03/04 12:29:17;;;;;;;32.90;20.17;;;;;;;17.61;37.91;97643.13;10391427;28;20046;-90
2021/03/04 12:34:37;;;;;;;35.65;19.98;;;;;;;17.29;37.96;97632.03;10390325;28;20053;-80
2021/03/04 12:39:57;;;;;;;33.33;20.85;;;;;;;17.72;38.33;97630.84;10393224;28;20040;-78
2021/03/04 12:45:17;;;;;;;33.05;20.20;;;;;;;17.11;38.01;97620.00;10382307;28;20456;-79
2021/03/04 12:50:37;;;;;;;37.75;19.85;;;;;;;16.87;39.00;97602.81;10346890;28;20057;-80
2021/03/04 12:55:57;;;;;;;38.45;19.73;;;;;;;17.29;38.52;97586.88;10360885;28;20034;-78
2021/03/04 13:01:17;;;;;;;33.50;19.30;;;;;;;17.59;38.52;97581.69;10360431;28;20388;-81
2021/03/04 13:06:36;;;;;;;31.55;19.95;;;;;;;17.24;38.25;97576.81;10347291;28;20386;-79
2021/03/04 13:11:57;;;;;;;34.20;19.05;;;;;;;16.42;38.94;97569.25;10355460;28;20042;-80
2021/03/04 13:17:17;;;;;;;31.52;19.15;;;;;;;16.57;39.59;97560.00;10352357;28;20037;-78
2021/03/04 13:22:37;;;;;;;35.45;19.95;;;;;;;17.10;39.52;97562.16;10379444;28;20044;-80
2021/03/04 13:27:57;;;;;;;38.97;20.17;;;;;;;17.21;39.23;97555.53;10358807;28;20056;-80
2021/03/04 13:33:16;;;;;;;33.35;20.00;;;;;;;17.54;39.15;97545.47;10363950;28;20064;-78
2021/03/04 13:38:36;;;;;;;33.38;19.55;;;;;;;17.65;38.84;97536.00;10351344;28;20046;-85
2021/03/04 13:43:56;;;;;;;32.35;20.08;;;;;;;17.50;38.84;97531.22;10357908;28;20096;-83
2021/03/04 13:49:16;;;;;;;35.60;18.90;;;;;;;17.16;39.10;97532.09;10353104;28;20038;-84
2021/03/04 13:54:35;;;;;;;26.80;18.45;;;;;;;17.11;38.97;97524.13;10371933;28;20099;-80
2021/03/04 13:59:55;;;;;;;30.83;21.23;;;;;;;17.00;38.94;97523.03;10362102;28;20041;-82
2021/03/04 14:05:15;;;;;;;47.38;33.53;;;;;;;16.37;40.00;97514.84;10351212;28;20052;-81
2021/03/04 14:10:35;;;;;;;45.88;32.90;;;;;;;15.85;41.04;97519.69;10365829;28;20044;-81
2021/03/04 14:15:55;;;;;;;52.05;35.05;;;;;;;15.80;42.12;97506.09;10345733;28;20044;-79
2021/03/04 14:21:15;;;;;;;51.78;35.72;;;;;;;15.77;43.73;97496.09;10370353;28;20390;-80
2021/03/04 14:26:37;;;;;;;51.83;36.78;;;;;;;15.29;43.84;97512.25;10382358;28;20115;-81
2021/03/04 14:31:57;;;;;;;56.15;35.72;;;;;;;15.11;45.13;97496.00;10400903;28;20523;-82
2021/03/04 14:37:17;;;;;;;56.42;36.55;;;;;;;14.75;45.09;97494.31;10393333;28;20104;-81
2021/03/04 14:42:37;;;;;;;56.28;36.67;;;;;;;14.45;47.14;97483.06;10395201;28;20045;-89
2021/03/04 14:47:57;;;;;;;54.50;37.60;;;;;;;14.29;48.34;97482.28;10415407;28;20400;-91
2021/03/04 14:53:17;;;;;;;57.35;39.00;;;;;;;14.10;47.80;97472.22;10404148;28;20036;-89
2021/03/04 14:58:37;;;;;;;61.40;38.90;;;;;;;13.55;48.80;97474.34;10364422;28;20119;-87
2021/03/04 15:03:56;;;;;;;67.63;38.55;;;;;;;13.01;51.01;97468.00;10341886;28;20401;-84
2021/03/04 15:09:16;;;;;;;59.33;37.50;;;;;;;12.55;50.99;97463.44;10398655;28;20042;-90
2021/03/04 15:14:36;;;;;;;53.88;37.33;;;;;;;12.23;52.16;97463.06;10417434;28;20045;-88
2021/03/04 15:19:56;;;;;;;56.38;37.33;;;;;;;12.00;52.42;97451.94;11374409;22;20250;-78
2021/03/04 15:25:16;;;;;;;55.53;38.35;;;;;;;11.81;53.98;97452.97;10271273;28;20070;-78
2021/03/04 15:30:36;;;;;;;60.70;38.17;;;;;;;11.62;53.68;97464.41;10276186;29;20046;-78
2021/03/04 15:35:56;;;;;;;64.25;40.50;;;;;;;11.42;55.05;97459.06;10282040;29;20062;-80
2021/03/04 15:41:16;;;;;;;64.63;39.45;;;;;;;11.15;55.13;97467.94;10282189;28;20050;-78
2021/03/04 15:46:36;;;;;;;64.50;39.95;;;;;;;10.86;55.42;97487.06;10262016;29;20462;-78
2021/03/04 15:51:56;;;;;;;69.53;41.92;;;;;;;10.58;57.67;97509.09;10267480;28;20035;-83
2021/03/04 16:03:10;;;;;;;69.78;41.20;;;;;;;10.01;58.81;97510.97;11091301;23;20528;-80
2021/03/04 16:08:31;;;;;;;68.93;40.50;;;;;;;9.85;59.69;97504.34;9986492;29;20057;-79
2021/03/04 16:13:57;;;;;;;62.63;38.08;;;;;;;9.58;60.62;97504.63;9987277;29;20051;-81
2021/03/04 16:19:17;;;;;;;65.90;38.60;;;;;;;9.36;61.23;97501.06;9994400;29;20099;-79
2021/03/04 16:24:39;;;;;;;62.58;38.55;;;;;;;9.26;62.07;97499.63;9995608;29;20046;-79
2021/03/04 16:29:59;;;;;;;56.90;35.70;;;;;;;9.11;61.62;97506.28;9979504;29;20056;-79
2021/03/04 16:35:23;;;;;;;58.45;34.50;;;;;;;9.01;62.19;97517.47;9975005;29;20046;-79
2021/03/04 16:40:42;;;;;;;61.75;37.35;;;;;;;8.92;63.78;97500.78;10048845;23;20077;-79
2021/03/04 16:46:03;;;;;;;57.35;35.67;;;;;;;8.86;62.91;97498.28;9998863;29;20050;-79
2021/03/04 16:51:25;;;;;;;56.78;37.03;;;;;;;8.78;63.49;97486.59;9984368;29;20560;-77
2021/03/04 16:56:48;;;;;;;57.72;34.20;;;;;;;8.74;63.90;97487.03;9996539;29;20051;-75
2021/03/04 17:02:10;;;;;;;54.78;34.05;;;;;;;8.74;63.32;97503.75;9996590;29;20062;-78
2021/03/04 17:07:32;;;;;;;57.80;34.65;;;;;;;8.67;63.50;97482.38;9986277;29;20053;-82
2021/03/04 17:12:52;;;;;;;59.05;35.95;;;;;;;8.62;63.98;97488.97;9987825;29;20056;-80
2021/03/04 17:18:15;;;;;;;54.25;34.15;;;;;;;8.57;65.29;97512.97;9943414;29;20422;-81
2021/03/04 17:23:35;;;;;;;50.63;32.57;;;;;;;8.52;64.99;97516.81;9972020;29;20054;-81
2021/03/04 17:28:56;;;;;;;55.33;34.60;;;;;;;8.51;65.15;97523.69;10070900;23;20156;-82
2021/03/04 17:34:16;;;;;;;58.30;35.70;;;;;;;8.43;65.97;97514.75;9965732;29;20415;-82
2021/03/04 17:39:35;;;;;;;53.33;35.08;;;;;;;8.38;65.11;97523.38;9935450;29;20415;-79
2021/03/04 17:44:55;;;;;;;53.70;34.72;;;;;;;8.38;65.47;97518.56;9957560;29;20414;-79
2021/03/04 17:50:18;;;;;;;53.25;34.45;;;;;;;8.39;65.99;97508.91;9958759;29;20054;-79
2021/03/04 17:55:38;;;;;;;53.90;34.08;;;;;;;8.39;65.71;97519.28;9957689;29;20047;-79
2021/03/04 18:00:58;;;;;;;55.20;33.67;;;;;;;8.41;65.96;97528.53;9982760;29;20463;-80
2021/03/04 18:06:20;;;;;;;51.97;33.58;;;;;;;8.50;66.17;97540.97;9957396;29;20502;-79
2021/03/04 18:11:42;;;;;;;53.22;33.55;;;;;;;8.57;66.04;97523.38;9932177;29;20061;-79
2021/03/04 18:17:04;;;;;;;51.88;34.58;;;;;;;8.57;66.43;97529.69;9957603;29;20119;-80
2021/03/04 18:22:24;;;;;;;53.08;33.85;;;;;;;8.56;66.73;97539.34;9945952;29;20050;-78
2021/03/04 18:27:44;;;;;;;54.53;34.33;;;;;;;8.53;66.81;97532.19;9984696;29;20492;-81
2021/03/04 18:33:04;;;;;;;51.65;33.22;;;;;;;8.51;67.30;97529.25;9974668;29;20031;-83
2021/03/04 18:38:24;;;;;;;53.70;35.33;;;;;;;8.54;67.40;97519.72;10370387;24;20067;-82
2021/03/04 18:43:44;;;;;;;55.53;35.78;;;;;;;8.53;67.22;97514.75;9977506;29;20522;-80
2021/03/04 18:49:33;;;;;;;54.42;34.85;;;;;;;8.45;67.97;97525.31;9966092;29;20046;-81
2021/03/04 18:54:53;;;;;;;51.90;33.83;;;;;;;8.43;68.51;97514.75;9978675;29;20046;-79
2021/03/04 19:00:14;;;;;;;54.92;32.75;;;;;;;8.38;68.28;97512.25;9946543;29;20055;-79
2021/03/04 19:05:34;;;;;;;57.80;37.75;;;;;;;8.31;70.59;97464.53;9987039;29;20054;-78
2021/03/04 19:10:54;;;;;;;48.45;32.85;;;;;;;8.17;69.41;97460.72;9974516;29;20050;-80
2021/03/04 19:16:16;;;;;;;52.92;33.95;;;;;;;8.06;69.89;97457.81;9975868;29;20050;-82
2021/03/04 19:21:36;;;;;;;49.25;32.67;;;;;;;8.00;69.99;97452.53;9963424;29;20450;-80
2021/03/04 19:26:59;;;;;;;56.85;35.45;;;;;;;7.93;70.06;97451.38;9962049;29;20072;-76
2021/03/04 19:32:20;;;;;;;53.00;35.38;;;;;;;7.91;70.53;97458.81;9961611;29;20083;-76
2021/03/04 19:37:40;;;;;;;53.53;33.10;;;;;;;7.90;70.60;97458.09;9974059;29;20073;-76
2021/03/04 19:42:59;;;;;;;54.13;34.85;;;;;;;7.86;70.66;97455.03;9973190;29;20077;-77
2021/03/04 19:48:19;;;;;;;55.00;36.20;;;;;;;7.81;71.19;97455.28;9961089;29;20423;-78
2021/03/04 19:53:39;;;;;;;53.17;34.83;;;;;;;7.73;71.08;97458.97;9973062;29;20046;-79
2021/03/04 19:58:59;;;;;;;57.72;37.03;;;;;;;7.73;71.61;97463.78;9960082;29;20054;-77
2021/03/04 20:04:20;;;;;;;58.25;39.53;;;;;;;7.78;71.89;97456.47;9959988;29;20432;-79
2021/03/04 20:09:40;;;;;;;58.63;37.90;;;;;;;7.80;71.78;97451.06;9960168;29;20043;-78
2021/03/04 20:14:59;;;;;;;59.72;37.70;;;;;;;7.81;72.14;97447.69;9971996;29;20522;-79
2021/03/04 20:20:21;;;;;;;54.13;36.53;;;;;;;7.82;71.97;97454.75;9959411;29;20061;-79
2021/03/04 20:25:41;;;;;;;52.58;35.75;;;;;;;7.86;72.23;97448.72;9959254;29;20061;-76
2021/03/04 20:31:03;;;;;;;57.03;35.17;;;;;;;7.90;72.29;97457.34;9984377;29;20042;-79
2021/03/04 20:36:23;;;;;;;53.92;35.40;;;;;;;7.81;73.17;97464.38;9962006;29;20074;-80
2021/03/04 20:41:42;;;;;;;42.67;30.17;;;;;;;7.49;72.80;97456.41;9960770;29;20050;-82
2021/03/04 20:47:02;;;;;;;37.47;26.88;;;;;;;7.21;72.59;97466.13;9975911;29;20479;-81
2021/03/04 20:52:22;;;;;;;34.80;26.20;;;;;;;6.93;72.67;97470.97;9966661;29;20460;-81
2021/03/04 20:57:42;;;;;;;34.55;24.80;;;;;;;6.77;72.84;97470.47;9950883;29;20054;-80
2021/03/04 21:03:11;;;;;;;36.65;25.05;;;;;;;6.69;73.20;97475.38;9971212;29;20047;-81
2021/03/04 21:08:31;;;;;;;34.13;23.92;;;;;;;6.66;73.29;97486.88;10076999;29;20053;-81
2021/03/04 21:13:53;;;;;;;31.20;21.35;;;;;;;6.51;73.09;97496.16;10060535;29;20041;-80
2021/03/04 21:19:20;;;;;;;30.63;22.27;;;;;;;6.47;73.37;97515.97;10058493;29;20500;-80
2021/03/04 21:24:40;;;;;;;32.13;22.98;;;;;;;6.43;73.53;97546.13;10071509;29;20473;-80
2021/03/04 21:30:04;;;;;;;31.65;22.45;;;;;;;6.43;73.75;97554.47;10073030;29;20385;-84
2021/03/04 21:35:25;;;;;;;27.45;19.92;;;;;;;6.28;74.13;97563.69;11649003;23;20052;-83
2021/03/04 21:40:45;;;;;;;28.27;18.50;;;;;;;6.22;73.87;97562.44;11416285;23;20031;-79
2021/03/04 21:46:05;;;;;;;25.20;17.58;;;;;;;6.09;74.45;97560.00;10130821;29;20127;-79
2021/03/04 21:51:53;;;;;;;24.95;18.00;;;;;;;5.94;74.07;97550.53;10117498;29;20052;-80
2021/03/04 21:57:13;;;;;;;19.40;14.68;;;;;;;5.70;73.79;97537.44;10096100;29;20412;-81
2021/03/04 22:02:33;;;;;;;19.65;14.45;;;;;;;5.57;74.59;97534.94;10109211;29;20041;-79
2021/03/04 22:07:53;;;;;;;16.60;13.15;;;;;;;5.40;74.26;97530.09;10109204;29;20377;-80
2021/03/04 22:13:14;;;;;;;16.15;12.93;;;;;;;5.26;74.02;97529.63;10095051;29;20404;-80
2021/03/04 22:18:34;;;;;;;15.32;12.20;;;;;;;5.15;74.65;97530.09;10121079;29;20048;-79
2021/03/04 22:23:54;;;;;;;16.13;12.50;;;;;;;5.09;74.56;97537.88;10121367;29;20063;-80
2021/03/04 22:29:14;;;;;;;16.98;12.18;;;;;;;5.05;74.69;97537.53;10121278;29;20507;-79
2021/03/04 22:34:33;;;;;;;12.40;10.25;;;;;;;4.99;75.09;97517.63;10098291;29;20045;-80
2021/03/04 22:39:53;;;;;;;15.13;11.30;;;;;;;4.95;74.92;97514.53;10128551;29;20385;-80
2021/03/04 22:45:14;;;;;;;14.48;11.00;;;;;;;4.88;74.90;97516.78;10114776;29;20071;-79
2021/03/04 22:50:33;;;;;;;14.05;10.52;;;;;;;4.88;74.97;97521.56;10128162;29;20049;-80
2021/03/04 22:55:53;;;;;;;12.55;10.68;;;;;;;4.83;74.80;97512.22;10114753;29;20045;-79
2021/03/04 23:01:13;;;;;;;11.88;10.13;;;;;;;4.81;75.10;97517.53;10127496;29;20049;-80
2021/03/04 23:06:33;;;;;;;13.38;10.27;;;;;;;4.83;75.20;97528.06;10101373;29;20049;-79
2021/03/04 23:11:52;;;;;;;13.80;10.38;;;;;;;4.81;74.94;97536.91;10114301;29;20405;-80
2021/03/04 23:17:12;;;;;;;11.80;10.45;;;;;;;4.79;75.14;97541.53;10101087;29;20047;-79
2021/03/04 23:22:32;;;;;;;13.52;10.90;;;;;;;4.76;74.92;97537.88;10114050;29;20404;-80
2021/03/04 23:27:52;;;;;;;13.52;10.60;;;;;;;4.65;75.21;97549.34;10126577;29;20053;-80
2021/03/04 23:33:12;;;;;;;15.60;11.48;;;;;;;4.54;75.02;97561.56;10139615;29;20044;-79
2021/03/04 23:38:32;;;;;;;15.88;11.30;;;;;;;4.49;75.34;97572.81;10113291;29;20477;-79
2021/03/04 23:43:52;;;;;;;15.60;10.90;;;;;;;4.36;74.62;97559.97;10125981;29;20158;-79
2021/03/04 23:49:12;;;;;;;14.40;9.70;;;;;;;4.24;74.64;97548.56;10125858;29;20044;-79
2021/03/04 23:54:32;;;;;;;13.68;9.82;;;;;;;4.09;74.35;97554.13;10125682;29;20073;-79
2021/03/04 23:59:52;;;;;;;13.25;9.98;;;;;;;3.89;74.48;97561.34;10112588;29;20553;-79
